createdAt,value
2023-01-10T00:00:35.549Z,27.02
2023-01-10T00:03:04.318Z,26.45
2023-01-10T00:05:31.893Z,23.25
2023-01-10T00:07:59.261Z,22.05
2023-01-10T00:10:26.142Z,21.95
2023-01-10T00:13:11.791Z,20.05
2023-01-10T00:15:39.238Z,22.33
2023-01-10T00:18:06.430Z,19.48
2023-01-10T00:20:33.254Z,19.15
2023-01-10T00:23:00.214Z,20.40
2023-01-10T00:25:27.486Z,21.60
2023-01-10T00:28:04.634Z,21.65
2023-01-10T00:30:34.018Z,22.00
2023-01-10T00:33:01.184Z,22.00
2023-01-10T00:35:28.255Z,21.55
2023-01-10T00:38:01.419Z,29.05
2023-01-10T00:40:28.354Z,27.35
2023-01-10T00:43:13.959Z,24.65
2023-01-10T00:45:40.821Z,24.48
2023-01-10T00:48:07.716Z,22.55
2023-01-10T00:50:34.759Z,19.73
2023-01-10T00:53:01.693Z,20.05
2023-01-10T00:55:28.726Z,19.95
2023-01-10T00:57:55.567Z,21.27
2023-01-10T01:00:22.652Z,20.95
2023-01-10T01:02:51.759Z,19.88
2023-01-10T01:05:19.423Z,19.90
2023-01-10T01:07:51.303Z,20.30
2023-01-10T01:10:28.142Z,18.75
2023-01-10T01:12:57.234Z,20.25
2023-01-10T01:15:25.187Z,23.05
2023-01-10T01:17:52.125Z,30.83
2023-01-10T01:20:21.063Z,27.80
2023-01-10T01:22:48.469Z,25.08
2023-01-10T01:25:15.711Z,22.40
2023-01-10T01:27:42.695Z,24.00
2023-01-10T01:30:11.379Z,27.73
2023-01-10T01:32:38.730Z,27.20
2023-01-10T01:35:07.492Z,29.05
2023-01-10T01:37:34.457Z,29.33
2023-01-10T01:40:01.330Z,31.80
2023-01-10T01:42:35.465Z,29.95
2023-01-10T01:45:08.631Z,25.90
2023-01-10T01:47:57.316Z,24.08
2023-01-10T01:50:42.747Z,26.55
2023-01-10T01:53:14.882Z,24.25
2023-01-10T01:55:43.881Z,27.38
2023-01-10T01:58:18.201Z,27.15
2023-01-10T02:00:45.227Z,26.85
2023-01-10T02:03:14.373Z,25.98
2023-01-10T02:05:44.480Z,22.67
2023-01-10T02:08:12.818Z,20.45
2023-01-10T02:11:01.263Z,22.63
2023-01-10T02:13:28.517Z,20.90
2023-01-10T02:15:55.378Z,21.38
2023-01-10T02:18:23.551Z,20.65
2023-01-10T02:20:50.378Z,18.65
2023-01-10T02:23:36.328Z,18.65
2023-01-10T02:26:22.786Z,24.80
2023-01-10T02:29:08.823Z,21.65
2023-01-10T02:31:57.288Z,19.33
2023-01-10T02:35:11.997Z,19.08
2023-01-10T02:37:59.898Z,18.88
2023-01-10T02:40:38.884Z,19.40
2023-01-10T02:43:19.874Z,24.17
2023-01-10T02:45:53.345Z,22.73
2023-01-10T02:48:21.867Z,25.75
2023-01-10T02:51:07.163Z,30.85
2023-01-10T02:53:44.953Z,22.10
2023-01-10T02:56:36.862Z,21.88
2023-01-10T02:59:21.488Z,24.95
2023-01-10T03:02:05.670Z,23.42
2023-01-10T03:04:46.126Z,24.30
2023-01-10T03:07:28.059Z,24.13
2023-01-10T03:10:23.763Z,24.73
2023-01-10T03:13:05.053Z,22.63
2023-01-10T03:18:10.672Z,23.73
2023-01-10T03:20:39.861Z,24.08
2023-01-10T03:23:07.257Z,34.65
2023-01-10T03:25:38.160Z,40.78
2023-01-10T03:28:09.925Z,40.35
2023-01-10T03:30:36.754Z,36.97
2023-01-10T03:33:04.776Z,40.17
2023-01-10T03:36:27.502Z,43.83
2023-01-10T03:38:57.337Z,40.25
2023-01-10T03:41:42.676Z,39.67
2023-01-10T03:44:44.473Z,43.17
2023-01-10T03:47:20.335Z,35.33
2023-01-10T03:49:54.129Z,37.08
2023-01-10T03:52:22.206Z,34.78
2023-01-10T03:54:49.380Z,37.40
2023-01-10T03:57:21.792Z,35.67
2023-01-10T03:59:55.225Z,36.47
2023-01-10T04:02:22.127Z,35.80
2023-01-10T04:04:49.007Z,36.95
2023-01-10T04:07:15.964Z,42.80
2023-01-10T04:09:42.836Z,50.83
2023-01-10T04:12:09.828Z,46.15
2023-01-10T04:14:37.374Z,45.90
2023-01-10T04:17:59.075Z,39.72
2023-01-10T04:20:34.633Z,39.25
2023-01-10T04:23:01.671Z,35.20
2023-01-10T04:25:28.610Z,34.55
2023-01-10T04:27:55.510Z,37.92
2023-01-10T04:30:22.768Z,45.75
2023-01-10T04:32:49.711Z,45.85
2023-01-10T04:35:16.772Z,37.70
2023-01-10T04:37:43.695Z,38.22
2023-01-10T04:40:11.264Z,35.95
2023-01-10T04:42:38.296Z,43.03
2023-01-10T04:45:05.760Z,35.80
2023-01-10T04:47:32.675Z,31.15
2023-01-10T04:49:59.668Z,30.38
2023-01-10T04:52:28.294Z,31.90
2023-01-10T04:54:55.233Z,35.50
2023-01-10T04:57:22.122Z,30.20
2023-01-10T04:59:48.975Z,27.73
2023-01-10T05:02:17.307Z,34.35
2023-01-10T05:04:44.279Z,32.85
2023-01-10T05:07:11.170Z,40.67
2023-01-10T05:09:38.004Z,39.42
2023-01-10T05:12:05.127Z,37.97
2023-01-10T05:14:32.049Z,33.25
2023-01-10T05:16:59.245Z,32.67
2023-01-10T05:19:26.064Z,34.30
2023-01-10T05:21:53.382Z,32.33
2023-01-10T05:24:20.408Z,34.88
2023-01-10T05:26:47.350Z,35.58
2023-01-10T05:29:17.077Z,30.23
2023-01-10T05:31:44.011Z,25.30
2023-01-10T05:34:13.948Z,26.92
2023-01-10T05:36:41.187Z,26.88
2023-01-10T05:39:08.126Z,23.70
2023-01-10T05:41:35.099Z,25.80
2023-01-10T05:44:02.022Z,33.70
2023-01-10T05:46:29.572Z,24.77
2023-01-10T05:48:56.460Z,36.90
2023-01-10T05:51:23.433Z,29.83
2023-01-10T05:53:50.447Z,27.48
2023-01-10T05:56:17.919Z,28.58
2023-01-10T05:58:47.269Z,25.23
2023-01-10T06:01:16.794Z,20.92
2023-01-10T06:03:44.089Z,21.15
2023-01-10T06:06:11.084Z,27.40
2023-01-10T06:08:38.207Z,21.40
2023-01-10T06:11:06.043Z,22.13
2023-01-10T06:13:33.637Z,19.35
2023-01-10T06:16:00.640Z,19.52
2023-01-10T06:18:27.794Z,30.65
2023-01-10T06:20:54.875Z,72.50
2023-01-10T06:23:22.000Z,40.10
2023-01-10T06:25:49.177Z,36.45
2023-01-10T06:28:16.149Z,34.80
2023-01-10T06:30:43.725Z,33.17
2023-01-10T06:33:12.504Z,32.15
2023-01-10T06:35:39.889Z,26.90
2023-01-10T06:38:06.849Z,26.00
2023-01-10T06:40:34.000Z,27.35
2023-01-10T06:43:00.831Z,45.10
2023-01-10T06:45:27.976Z,42.58
2023-01-10T06:47:54.983Z,42.97
2023-01-10T06:50:22.524Z,50.70
2023-01-10T06:53:00.344Z,36.95
2023-01-10T06:55:28.598Z,32.47
2023-01-10T06:58:00.247Z,32.38
2023-01-10T07:00:29.244Z,32.13
2023-01-10T07:03:00.946Z,30.58
2023-01-10T07:05:29.203Z,31.30
2023-01-10T07:07:58.041Z,31.40
2023-01-10T07:10:25.083Z,42.70
2023-01-10T07:12:52.075Z,37.63
2023-01-10T07:15:18.917Z,40.78
2023-01-10T07:17:45.866Z,33.08
2023-01-10T07:20:13.337Z,27.92
2023-01-10T07:22:40.475Z,30.63
2023-01-10T07:25:07.809Z,38.22
2023-01-10T07:27:34.902Z,45.13
2023-01-10T07:30:02.012Z,48.10
2023-01-10T07:32:28.977Z,48.65
2023-01-10T07:34:56.220Z,60.55
2023-01-10T07:37:23.205Z,45.25
2023-01-10T07:39:50.518Z,37.53
2023-01-10T07:42:17.368Z,39.70
2023-01-10T07:44:44.299Z,38.35
2023-01-10T07:47:11.409Z,23.25
2023-01-10T07:49:38.394Z,27.70
2023-01-10T07:52:07.951Z,24.75
2023-01-10T07:54:36.173Z,21.85
2023-01-10T07:57:03.276Z,21.27
2023-01-10T07:59:30.381Z,18.90
2023-01-10T08:01:57.326Z,17.30
2023-01-10T08:04:24.349Z,16.30
2023-01-10T08:06:51.828Z,14.38
2023-01-10T08:09:18.787Z,13.98
2023-01-10T08:11:45.698Z,12.52
2023-01-10T08:14:12.616Z,12.73
2023-01-10T08:16:39.494Z,12.77
2023-01-10T08:19:06.581Z,15.65
2023-01-10T08:21:33.704Z,13.13
2023-01-10T08:24:00.652Z,13.98
2023-01-10T08:26:27.719Z,19.95
2023-01-10T08:28:54.652Z,13.93
2023-01-10T08:31:21.624Z,11.10
2023-01-10T08:33:48.719Z,12.07
2023-01-10T08:36:20.690Z,13.70
2023-01-10T08:38:48.374Z,17.50
2023-01-10T08:41:15.327Z,10.00
2023-01-10T08:43:42.718Z,10.27
2023-01-10T08:46:09.776Z,12.15
2023-01-10T08:48:36.941Z,12.88
2023-01-10T08:51:10.244Z,13.23
2023-01-10T08:53:39.499Z,10.40
2023-01-10T08:56:06.840Z,10.20
2023-01-10T08:58:34.087Z,8.75
2023-01-10T09:01:04.943Z,9.68
2023-01-10T09:03:31.935Z,13.77
2023-01-10T09:06:00.164Z,11.02
2023-01-10T09:08:27.110Z,10.98
2023-01-10T09:10:54.592Z,13.15
2023-01-10T09:13:21.454Z,13.90
2023-01-10T09:15:49.026Z,12.45
2023-01-10T09:18:15.982Z,13.55
2023-01-10T09:20:43.546Z,12.20
2023-01-10T09:23:20.263Z,12.15
2023-01-10T09:25:48.478Z,11.98
2023-01-10T09:28:16.274Z,30.98
2023-01-10T09:30:44.517Z,20.10
2023-01-10T09:33:13.581Z,26.73
2023-01-10T09:35:41.873Z,21.20
2023-01-10T09:38:12.708Z,17.30
2023-01-10T09:41:07.490Z,27.13
2023-01-10T09:44:01.120Z,15.60
2023-01-10T09:46:43.431Z,25.60
2023-01-10T09:49:29.088Z,19.80
2023-01-10T09:51:59.229Z,29.17
2023-01-10T09:54:33.782Z,16.45
2023-01-10T09:57:02.782Z,15.40
2023-01-10T09:59:41.695Z,12.60
2023-01-10T10:02:40.656Z,12.75
2023-01-10T10:05:18.873Z,9.50
2023-01-10T10:07:53.840Z,8.65
2023-01-10T10:10:39.366Z,9.45
2023-01-10T10:13:23.262Z,11.50
2023-01-10T10:16:09.274Z,7.95
2023-01-10T10:18:54.647Z,7.95
2023-01-10T10:21:39.808Z,8.68
2023-01-10T10:24:41.640Z,8.68
2023-01-10T10:27:17.473Z,7.97
2023-01-10T10:29:50.383Z,8.48
2023-01-10T10:32:29.591Z,11.30
2023-01-10T10:35:07.341Z,10.70
2023-01-10T10:37:41.276Z,8.77
2023-01-10T10:40:31.990Z,11.10
2023-01-10T10:43:11.687Z,10.50
2023-01-10T10:45:44.473Z,13.23
2023-01-10T10:48:34.480Z,12.30
2023-01-10T10:51:25.801Z,13.32
2023-01-10T10:53:54.754Z,11.63
2023-01-10T10:56:24.800Z,16.60
2023-01-10T10:58:55.615Z,25.42
2023-01-10T11:01:26.382Z,21.13
2023-01-10T11:04:03.731Z,13.00
2023-01-10T11:06:34.302Z,12.43
2023-01-10T11:09:04.709Z,20.50
2023-01-10T11:11:39.814Z,8.60
2023-01-10T11:14:08.803Z,7.85
2023-01-10T11:16:42.092Z,9.45
2023-01-10T11:19:11.816Z,9.68
2023-01-10T11:21:41.308Z,14.55
2023-01-10T11:24:20.500Z,11.85
2023-01-10T11:26:48.338Z,10.23
2023-01-10T11:29:17.434Z,11.77
2023-01-10T11:31:47.005Z,11.38
2023-01-10T11:34:33.361Z,10.23
2023-01-10T11:37:01.533Z,7.95
2023-01-10T11:39:30.159Z,5.95
2023-01-10T11:41:59.689Z,9.10
2023-01-10T11:44:30.024Z,7.70
2023-01-10T11:47:01.815Z,8.57
2023-01-10T11:49:37.764Z,6.75
2023-01-10T11:52:26.654Z,6.82
2023-01-10T11:54:58.378Z,7.68
2023-01-10T11:57:28.673Z,8.65
2023-01-10T12:00:07.513Z,6.88
2023-01-10T12:02:42.814Z,7.13
2023-01-10T12:05:20.495Z,8.80
2023-01-10T12:07:54.309Z,8.30
2023-01-10T12:10:23.271Z,10.70
2023-01-10T12:12:58.367Z,11.13
2023-01-10T12:15:26.999Z,11.55
2023-01-10T12:17:57.114Z,8.90
2023-01-10T12:20:28.735Z,9.45
2023-01-10T12:23:08.282Z,9.95
2023-01-10T12:25:39.037Z,9.32
2023-01-10T12:28:17.827Z,9.95
2023-01-10T12:30:50.481Z,13.50
2023-01-10T12:33:23.025Z,16.55
2023-01-10T12:36:13.118Z,11.35
2023-01-10T12:39:07.775Z,16.73
2023-01-10T12:42:00.303Z,9.57
2023-01-10T12:44:42.132Z,9.98
2023-01-10T12:47:30.813Z,12.27
2023-01-10T12:50:05.945Z,8.43
2023-01-10T12:53:07.054Z,9.55
2023-01-10T12:55:40.996Z,8.65
2023-01-10T12:58:23.334Z,13.32
2023-01-10T13:00:54.575Z,11.75
2023-01-10T13:03:25.844Z,8.93
2023-01-10T13:05:54.376Z,9.50
2023-01-10T13:08:25.872Z,9.93
2023-01-10T13:13:52.322Z,9.18
2023-01-10T13:16:52.862Z,11.57
2023-01-10T13:19:28.789Z,9.85
2023-01-10T13:22:17.712Z,9.48
2023-01-10T13:24:56.370Z,10.63
2023-01-10T13:27:33.396Z,9.35
2023-01-10T13:30:01.534Z,10.57
2023-01-10T13:32:32.911Z,11.20
2023-01-10T13:35:19.984Z,10.30
2023-01-10T13:37:54.333Z,10.77
2023-01-10T13:40:28.576Z,11.55
2023-01-10T13:43:36.885Z,11.25
2023-01-10T13:46:19.468Z,10.07
2023-01-10T13:48:49.450Z,10.23
2023-01-10T13:51:21.781Z,9.50
2023-01-10T13:53:57.735Z,9.98
2023-01-10T13:56:36.497Z,11.93
2023-01-10T13:59:28.775Z,11.40
2023-01-10T14:02:18.824Z,10.60
2023-01-10T14:04:55.826Z,11.48
2023-01-10T14:07:30.563Z,10.20
2023-01-10T14:10:06.899Z,10.15
2023-01-10T14:12:57.225Z,11.85
2023-01-10T14:15:37.605Z,11.40
2023-01-10T14:18:32.359Z,11.20
2023-01-10T14:21:02.804Z,8.63
2023-01-10T14:23:49.772Z,9.23
2023-01-10T14:26:27.176Z,11.52
2023-01-10T14:28:54.260Z,9.15
2023-01-10T14:31:26.462Z,8.93
2023-01-10T14:33:54.166Z,8.18
2023-01-10T14:36:37.353Z,8.82
2023-01-10T14:39:07.784Z,10.82
2023-01-10T14:41:42.746Z,12.15
2023-01-10T14:44:45.895Z,11.63
2023-01-10T14:47:29.936Z,10.68
2023-01-10T14:50:06.815Z,11.80
2023-01-10T14:52:34.151Z,12.90
2023-01-10T14:55:16.982Z,13.98
2023-01-10T14:58:01.932Z,14.27
2023-01-10T15:00:36.562Z,12.75
2023-01-10T15:03:04.509Z,11.35
2023-01-10T15:05:37.549Z,16.10
2023-01-10T15:08:24.092Z,21.88
2023-01-10T15:10:54.874Z,12.25
2023-01-10T15:13:28.269Z,16.48
2023-01-10T15:15:56.582Z,11.80
2023-01-10T15:18:45.921Z,13.18
2023-01-10T15:21:15.404Z,9.52
2023-01-10T15:23:44.546Z,9.85
2023-01-10T15:26:27.687Z,7.10
2023-01-10T15:29:20.541Z,5.97
2023-01-10T15:31:47.574Z,5.22
2023-01-10T15:34:29.895Z,4.65
2023-01-10T15:39:29.428Z,5.30
2023-01-10T15:42:00.678Z,5.43
2023-01-10T15:44:39.722Z,5.70
2023-01-10T15:47:37.067Z,5.90
2023-01-10T15:50:21.291Z,8.73
2023-01-10T15:52:57.639Z,6.35
2023-01-10T15:55:46.699Z,6.20
2023-01-10T15:58:19.124Z,8.45
2023-01-10T16:00:47.867Z,7.93
2023-01-10T16:03:36.986Z,8.45
2023-01-10T16:06:09.781Z,9.43
2023-01-10T16:08:38.784Z,6.20
2023-01-10T16:11:08.927Z,8.13
2023-01-10T16:13:37.521Z,10.45
2023-01-10T16:16:15.316Z,9.48
2023-01-10T16:18:42.518Z,10.10
2023-01-10T16:21:11.698Z,8.68
2023-01-10T16:23:46.045Z,12.25
2023-01-10T16:26:14.816Z,9.45
2023-01-10T16:28:41.777Z,10.32
2023-01-10T16:31:14.743Z,10.02
2023-01-10T16:33:42.216Z,13.38
2023-01-10T16:36:18.656Z,12.45
2023-01-10T16:38:45.626Z,11.10
2023-01-10T16:41:33.005Z,13.95
2023-01-10T16:44:00.866Z,14.23
2023-01-10T16:46:27.952Z,34.25
2023-01-10T16:48:55.082Z,25.00
2023-01-10T16:51:32.420Z,21.15
2023-01-10T16:53:59.446Z,20.27
2023-01-10T16:56:28.633Z,12.30
2023-01-10T16:58:55.958Z,11.02
2023-01-10T17:01:28.821Z,9.23
2023-01-10T17:03:56.560Z,9.02
2023-01-10T17:06:23.611Z,8.27
2023-01-10T17:08:50.650Z,8.55
2023-01-10T17:11:22.899Z,7.60
2023-01-10T17:13:50.004Z,6.43
2023-01-10T17:16:19.403Z,6.05
2023-01-10T17:18:47.579Z,9.57
2023-01-10T17:21:22.161Z,7.85
2023-01-10T17:23:49.982Z,16.70
2023-01-10T17:26:18.620Z,6.63
2023-01-10T17:28:46.699Z,6.82
2023-01-10T17:31:13.681Z,6.15
2023-01-10T17:33:40.613Z,6.85
2023-01-10T17:36:08.054Z,6.25
2023-01-10T17:38:34.864Z,6.90
2023-01-10T17:41:02.263Z,9.55
2023-01-10T17:43:30.751Z,7.25
2023-01-10T17:45:59.078Z,8.40
2023-01-10T17:48:26.634Z,8.50
2023-01-10T17:50:59.406Z,6.80
2023-01-10T17:53:26.667Z,6.13
2023-01-10T17:55:53.994Z,5.80
2023-01-10T17:58:21.486Z,7.93
2023-01-10T18:00:49.030Z,9.48
2023-01-10T18:03:16.682Z,6.97
2023-01-10T18:05:54.891Z,9.00
2023-01-10T18:08:22.708Z,7.07
2023-01-10T18:10:50.132Z,7.90
2023-01-10T18:13:18.781Z,7.07
2023-01-10T18:15:49.405Z,9.13
2023-01-10T18:18:18.374Z,5.80
2023-01-10T18:20:45.670Z,13.85
2023-01-10T18:23:23.076Z,6.35
2023-01-10T18:26:00.158Z,11.75
2023-01-10T18:28:40.664Z,6.65
2023-01-10T18:33:39.230Z,13.27
2023-01-10T18:36:07.903Z,21.92
2023-01-10T18:38:36.976Z,11.32
2023-01-10T18:41:04.583Z,12.65
2023-01-10T18:43:33.982Z,13.43
2023-01-10T18:46:14.215Z,12.55
2023-01-10T18:48:41.975Z,9.07
2023-01-10T18:51:12.970Z,8.57
2023-01-10T18:53:42.289Z,8.52
2023-01-10T18:56:10.362Z,9.80
2023-01-10T18:58:41.935Z,8.98
2023-01-10T19:01:16.860Z,9.85
2023-01-10T19:03:44.732Z,10.88
2023-01-10T19:06:17.271Z,10.10
2023-01-10T19:08:46.006Z,10.10
2023-01-10T19:11:16.773Z,9.23
2023-01-10T19:13:45.112Z,9.15
2023-01-10T19:16:13.915Z,7.90
2023-01-10T19:18:41.540Z,7.50
2023-01-10T19:21:16.051Z,6.18
2023-01-10T19:23:45.009Z,7.80
2023-01-10T19:26:13.143Z,6.50
2023-01-10T19:28:40.989Z,5.60
2023-01-10T19:31:08.467Z,5.25
2023-01-10T19:33:37.939Z,3.92
2023-01-10T19:36:06.989Z,4.20
2023-01-10T19:38:34.705Z,3.53
2023-01-10T19:41:02.063Z,3.53
2023-01-10T19:43:29.541Z,4.30
2023-01-10T19:45:56.902Z,5.95
2023-01-10T19:48:24.696Z,6.93
2023-01-10T19:50:52.388Z,5.05
2023-01-10T19:53:24.066Z,8.25
2023-01-10T19:58:27.147Z,2.70
2023-01-10T20:00:54.284Z,3.95
2023-01-10T20:03:21.586Z,2.58
2023-01-10T20:05:48.589Z,2.75
2023-01-10T20:08:20.701Z,3.22
2023-01-10T20:10:48.106Z,4.00
2023-01-10T20:13:15.655Z,4.13
2023-01-10T20:15:43.572Z,4.90
2023-01-10T20:18:10.650Z,4.25
2023-01-10T20:20:38.301Z,3.53
2023-01-10T20:23:07.156Z,3.53
2023-01-10T20:25:39.087Z,3.65
2023-01-10T20:28:16.352Z,3.72
2023-01-10T20:30:45.159Z,4.15
2023-01-10T20:33:16.106Z,4.75
2023-01-10T20:35:45.618Z,4.90
2023-01-10T20:38:13.063Z,5.78
2023-01-10T20:40:43.602Z,8.35
2023-01-10T20:43:12.131Z,8.65
2023-01-10T20:45:42.833Z,6.25
2023-01-10T20:48:10.440Z,6.90
2023-01-10T20:50:38.347Z,7.95
2023-01-10T20:53:05.362Z,7.93
2023-01-10T20:55:35.287Z,9.52
2023-01-10T20:58:03.061Z,7.82
2023-01-10T21:00:30.913Z,7.40
2023-01-10T21:02:58.059Z,7.72
2023-01-10T21:05:25.120Z,6.68
2023-01-10T21:07:52.052Z,7.55
2023-01-10T21:10:19.056Z,4.90
2023-01-10T21:12:46.101Z,4.95
2023-01-10T21:15:13.147Z,7.65
2023-01-10T21:17:42.038Z,8.98
2023-01-10T21:20:10.541Z,10.05
2023-01-10T21:22:37.478Z,7.03
2023-01-10T21:25:04.745Z,6.10
2023-01-10T21:27:31.962Z,6.80
2023-01-10T21:29:59.273Z,5.43
2023-01-10T21:32:26.513Z,8.18
2023-01-10T21:34:53.377Z,8.93
2023-01-10T21:37:20.343Z,5.93
2023-01-10T21:39:47.249Z,6.22
2023-01-10T21:42:32.477Z,6.35
2023-01-10T21:44:59.341Z,5.80
2023-01-10T21:47:26.313Z,6.18
2023-01-10T21:49:53.265Z,5.30
2023-01-10T21:52:20.473Z,5.75
2023-01-10T21:54:47.292Z,3.95
2023-01-10T21:57:14.228Z,4.63
2023-01-10T21:59:41.725Z,3.88
2023-01-10T22:02:15.932Z,3.97
2023-01-10T22:04:53.412Z,3.17
2023-01-10T22:07:28.344Z,3.67
2023-01-10T22:09:55.402Z,6.35
2023-01-10T22:12:24.302Z,4.60
2023-01-10T22:14:51.115Z,3.92
2023-01-10T22:17:18.154Z,5.13
2023-01-10T22:19:45.130Z,4.30
2023-01-10T22:22:12.261Z,3.60
2023-01-10T22:24:41.957Z,3.05
2023-01-10T22:27:08.984Z,2.83
2023-01-10T22:29:36.004Z,2.90
2023-01-10T22:32:03.024Z,2.70
2023-01-10T22:34:29.918Z,2.88
2023-01-10T22:36:56.933Z,2.25
2023-01-10T22:39:23.973Z,2.40
2023-01-10T22:41:53.500Z,3.08
2023-01-10T22:44:22.972Z,2.90
2023-01-10T22:46:51.720Z,2.60
2023-01-10T22:49:18.988Z,2.67
2023-01-10T22:51:46.173Z,2.05
2023-01-10T22:54:15.886Z,2.70
2023-01-10T22:56:43.807Z,2.38
2023-01-10T22:59:11.430Z,2.30
2023-01-10T23:01:39.109Z,1.95
2023-01-10T23:04:06.296Z,1.63
2023-01-10T23:06:33.292Z,2.30
2023-01-10T23:09:00.410Z,2.15
2023-01-10T23:11:27.341Z,2.45
2023-01-10T23:13:54.206Z,2.72
2023-01-10T23:16:28.598Z,2.40
2023-01-10T23:18:57.556Z,1.90
2023-01-10T23:21:25.995Z,1.98
2023-01-10T23:23:53.069Z,2.40
2023-01-10T23:26:19.981Z,2.38
2023-01-10T23:28:49.443Z,1.92
2023-01-10T23:31:19.873Z,1.77
2023-01-10T23:33:47.825Z,2.77
2023-01-10T23:36:15.199Z,2.90
2023-01-10T23:38:42.575Z,1.60
2023-01-10T23:41:09.763Z,1.60
2023-01-10T23:43:37.863Z,1.60
2023-01-10T23:46:06.096Z,1.73
2023-01-10T23:48:33.349Z,2.75
2023-01-10T23:51:00.282Z,2.33
2023-01-10T23:53:27.348Z,2.30
2023-01-10T23:55:54.479Z,1.95
2023-01-10T23:58:21.444Z,2.30
